Time;durP1;ratioP1;P1;durP2;ratioP2;P2;SDS_P1;SDS_P2;PMS_P1;PMS_P2;Temp;Humidity;BMP_temperature;BMP_pressure;BME280_temperature;BME280_humidity;BME280_pressure;Samples;Min_cycle;Max_cycle;Signal;HPM_P1;HPM_P2
2021/05/14 00:01:44;;;;;;;3.55;1.75;;;22.10;50.60;;;;;;4977558;28;20438;-70
2021/05/14 00:04:10;;;;;;;5.10;2.00;;;22.10;50.70;;;;;;4991333;28;20475;-69
2021/05/14 00:06:37;;;;;;;3.20;1.90;;;22.10;50.70;;;;;;4991167;28;20469;-71
2021/05/14 00:09:04;;;;;;;2.95;1.77;;;22.00;50.60;;;;;;4981905;28;20417;-70
2021/05/14 00:11:30;;;;;;;2.53;1.93;;;22.00;50.80;;;;;;4998091;28;20483;-71
2021/05/14 00:13:59;;;;;;;1.70;1.60;;;22.00;50.70;;;;;;4987502;28;20435;-71
2021/05/14 00:16:25;;;;;;;2.35;2.05;;;22.00;50.70;;;;;;4995333;28;20471;-71
2021/05/14 00:18:51;;;;;;;2.10;1.90;;;22.00;50.70;;;;;;4992002;28;20463;-70
2021/05/14 00:21:17;;;;;;;2.65;2.15;;;22.00;50.60;;;;;;4997223;28;20436;-71
2021/05/14 00:23:44;;;;;;;2.30;1.90;;;22.00;50.60;;;;;;4996089;28;20416;-70
2021/05/14 00:26:10;;;;;;;2.63;1.80;;;22.00;50.70;;;;;;4998293;28;20412;-70
2021/05/14 00:28:36;;;;;;;2.72;1.77;;;22.00;50.80;;;;;;4999420;28;20408;-70
2021/05/14 00:31:03;;;;;;;2.75;2.10;;;22.00;50.70;;;;;;4999493;28;20932;-72
2021/05/14 00:33:29;;;;;;;2.22;2.03;;;22.00;50.60;;;;;;4996977;28;20425;-71
2021/05/14 00:35:55;;;;;;;2.63;2.10;;;22.00;50.60;;;;;;4988104;28;21378;-73
2021/05/14 00:38:21;;;;;;;3.97;2.17;;;22.00;50.40;;;;;;4994820;28;21354;-72
2021/05/14 00:40:48;;;;;;;2.10;1.90;;;22.10;50.40;;;;;;4993984;28;20493;-70
2021/05/14 00:43:14;;;;;;;3.20;1.80;;;22.10;50.50;;;;;;5002748;28;20429;-73
2021/05/14 00:45:40;;;;;;;2.90;2.13;;;22.10;50.50;;;;;;5001205;28;20431;-70
2021/05/14 00:48:07;;;;;;;3.20;1.80;;;22.00;50.50;;;;;;4997651;28;20425;-71
2021/05/14 00:50:33;;;;;;;2.00;1.80;;;22.00;50.40;;;;;;4985027;28;20427;-69
2021/05/14 00:52:59;;;;;;;2.70;2.10;;;22.00;50.50;;;;;;4995055;28;20427;-70
2021/05/14 00:55:26;;;;;;;2.43;1.90;;;22.00;50.40;;;;;;5008570;28;20414;-70
2021/05/14 00:57:53;;;;;;;3.33;2.00;;;22.00;50.50;;;;;;4980089;28;20416;-69
2021/05/14 01:00:20;;;;;;;2.67;2.10;;;22.00;50.50;;;;;;4992658;28;20429;-72
2021/05/14 01:02:50;;;;;;;2.05;1.95;;;22.00;50.50;;;;;;5724123;23;20432;-69
2021/05/14 01:05:16;;;;;;;2.78;1.90;;;22.00;50.50;;;;;;4949198;28;21011;-72
2021/05/14 01:07:42;;;;;;;2.28;2.08;;;22.00;50.40;;;;;;4963458;28;20442;-71
2021/05/14 01:10:09;;;;;;;3.15;2.50;;;22.00;50.30;;;;;;4963098;28;20415;-69
2021/05/14 01:12:35;;;;;;;2.40;2.20;;;22.00;50.50;;;;;;4974456;28;20421;-69
2021/05/14 01:15:02;;;;;;;2.00;1.77;;;22.00;50.30;;;;;;4963398;28;20429;-68
2021/05/14 01:17:30;;;;;;;3.35;2.40;;;22.00;50.40;;;;;;4974398;28;20738;-67
2021/05/14 01:19:56;;;;;;;3.60;2.00;;;22.00;50.30;;;;;;4965228;28;20497;-68
2021/05/14 01:22:25;;;;;;;2.00;1.90;;;22.00;50.40;;;;;;4971844;28;20418;-69
2021/05/14 01:24:51;;;;;;;3.93;2.10;;;22.00;50.40;;;;;;4965133;28;20430;-68
2021/05/14 01:27:17;;;;;;;2.00;1.80;;;22.00;50.20;;;;;;4973190;28;20456;-68
2021/05/14 01:29:44;;;;;;;2.10;1.80;;;22.10;50.30;;;;;;4964810;28;20472;-68
2021/05/14 01:32:10;;;;;;;3.47;2.40;;;22.00;50.10;;;;;;4973699;28;20453;-69
2021/05/14 01:34:37;;;;;;;2.22;1.85;;;22.10;50.20;;;;;;4973349;28;20422;-68
2021/05/14 01:37:03;;;;;;;2.53;2.10;;;22.10;50.10;;;;;;4954668;28;20466;-67
2021/05/14 01:39:30;;;;;;;3.88;2.40;;;22.00;50.10;;;;;;4958890;28;20422;-68
2021/05/14 01:41:56;;;;;;;2.67;2.30;;;22.00;50.10;;;;;;4952844;28;20857;-68
2021/05/14 01:44:22;;;;;;;2.83;1.90;;;22.00;50.00;;;;;;4946008;28;21464;-68
2021/05/14 01:46:48;;;;;;;5.07;2.50;;;22.00;50.10;;;;;;4952839;28;20418;-68
2021/05/14 01:49:14;;;;;;;3.40;2.10;;;22.00;50.20;;;;;;4950065;28;20410;-68
2021/05/14 01:51:41;;;;;;;5.82;2.30;;;22.00;50.10;;;;;;4978042;28;20446;-68
2021/05/14 01:54:07;;;;;;;4.10;2.00;;;22.00;50.10;;;;;;4978550;28;20422;-68
2021/05/14 01:56:34;;;;;;;5.07;2.20;;;22.00;49.80;;;;;;4964950;28;20434;-70
2021/05/14 01:59:00;;;;;;;4.38;2.53;;;22.00;49.90;;;;;;4969621;28;20422;-72
2021/05/14 02:01:26;;;;;;;4.40;2.60;;;22.10;50.10;;;;;;4937879;28;20428;-70
2021/05/14 02:03:52;;;;;;;4.00;1.90;;;22.10;50.00;;;;;;4978256;28;20422;-69
2021/05/14 02:06:18;;;;;;;2.80;1.85;;;22.10;49.80;;;;;;4980918;28;20430;-69
2021/05/14 02:08:45;;;;;;;2.97;1.90;;;22.10;49.80;;;;;;4980898;28;21044;-69
2021/05/14 02:11:11;;;;;;;5.13;2.50;;;22.10;49.70;;;;;;4980234;28;21267;-67
2021/05/14 02:13:39;;;;;;;3.83;2.30;;;22.20;49.70;;;;;;4983606;28;20925;-68
2021/05/14 02:16:05;;;;;;;4.63;2.20;;;22.20;49.70;;;;;;4981579;28;20414;-70
2021/05/14 02:18:32;;;;;;;6.27;2.60;;;22.10;49.70;;;;;;4981645;28;20786;-68
2021/05/14 02:20:58;;;;;;;6.00;2.17;;;22.10;49.80;;;;;;4968749;28;20414;-67
2021/05/14 02:23:24;;;;;;;4.00;2.33;;;22.10;49.70;;;;;;4979447;28;20788;-68
2021/05/14 02:25:50;;;;;;;4.57;2.80;;;22.10;49.80;;;;;;4967609;28;20957;-69
2021/05/14 02:28:16;;;;;;;5.25;2.70;;;22.00;49.70;;;;;;4982462;28;20426;-69
2021/05/14 02:30:44;;;;;;;3.10;2.30;;;22.00;49.80;;;;;;4977577;28;20429;-69
2021/05/14 02:33:10;;;;;;;2.33;2.00;;;21.90;50.00;;;;;;4978055;28;20845;-69
2021/05/14 02:35:36;;;;;;;6.35;2.50;;;21.90;50.10;;;;;;4941186;28;20510;-70
2021/05/14 02:38:03;;;;;;;3.97;2.40;;;21.90;50.30;;;;;;4945923;28;20457;-70
2021/05/14 02:40:29;;;;;;;4.72;2.55;;;21.80;50.20;;;;;;4952183;28;20418;-68
2021/05/14 02:42:55;;;;;;;7.78;2.30;;;21.80;50.20;;;;;;4944738;28;20427;-69
2021/05/14 02:45:21;;;;;;;4.20;2.38;;;21.90;50.20;;;;;;4957978;28;20428;-69
2021/05/14 02:47:48;;;;;;;4.28;2.33;;;21.90;50.20;;;;;;4961442;28;20424;-68
2021/05/14 02:50:14;;;;;;;4.68;2.15;;;21.90;50.10;;;;;;4948147;28;20430;-70
2021/05/14 02:52:40;;;;;;;5.88;2.45;;;21.90;50.00;;;;;;4972832;28;20944;-68
2021/05/14 02:55:08;;;;;;;4.43;2.08;;;21.90;50.10;;;;;;4977755;28;20440;-68
2021/05/14 02:57:34;;;;;;;5.70;2.42;;;21.90;50.00;;;;;;4976284;28;20435;-70
2021/05/14 03:00:00;;;;;;;3.42;2.00;;;21.90;50.10;;;;;;4968288;28;20431;-68
2021/05/14 03:02:26;;;;;;;6.43;2.13;;;21.90;50.10;;;;;;4978430;28;20429;-68
2021/05/14 03:04:53;;;;;;;6.13;2.40;;;21.80;50.10;;;;;;4978050;28;21060;-68
2021/05/14 03:07:20;;;;;;;4.68;2.42;;;21.90;50.20;;;;;;4981043;28;20920;-68
2021/05/14 03:09:46;;;;;;;4.88;2.10;;;21.90;50.10;;;;;;4951919;28;20493;-66
2021/05/14 03:12:12;;;;;;;6.28;2.65;;;21.90;50.00;;;;;;4978840;28;20431;-67
2021/05/14 03:14:38;;;;;;;4.10;2.30;;;22.00;49.90;;;;;;4970677;28;20426;-67
2021/05/14 03:17:04;;;;;;;4.47;2.30;;;22.00;49.70;;;;;;4977237;28;20426;-68
2021/05/14 03:19:31;;;;;;;3.10;2.10;;;22.00;49.60;;;;;;4981281;28;20428;-67
2021/05/14 03:21:58;;;;;;;3.92;1.98;;;22.10;49.50;;;;;;4970448;28;20473;-68
2021/05/14 03:24:24;;;;;;;4.20;2.10;;;22.10;49.40;;;;;;4977408;28;20438;-68
2021/05/14 03:26:53;;;;;;;4.68;2.05;;;22.10;49.30;;;;;;4968067;28;20403;-68
2021/05/14 03:29:19;;;;;;;5.30;1.83;;;22.20;49.30;;;;;;4977691;28;21194;-69
2021/05/14 03:31:45;;;;;;;2.53;1.73;;;22.20;49.30;;;;;;4977901;28;20418;-69
2021/05/14 03:34:11;;;;;;;3.50;2.30;;;22.20;49.30;;;;;;4976460;28;20915;-68
2021/05/14 03:36:37;;;;;;;4.10;2.08;;;22.10;49.20;;;;;;4962856;28;20422;-67
2021/05/14 03:39:08;;;;;;;4.18;2.42;;;22.10;49.10;;;;;;4975465;28;20722;-67
2021/05/14 03:41:45;;;;;;;4.82;2.47;;;22.10;49.10;;;;;;4959004;28;20425;-69
2021/05/14 03:44:11;;;;;;;2.63;1.97;;;22.10;49.20;;;;;;4952589;28;20430;-69
2021/05/14 03:46:37;;;;;;;4.65;2.50;;;22.10;49.20;;;;;;4948871;28;20462;-68
2021/05/14 03:49:04;;;;;;;8.68;2.50;;;22.10;49.30;;;;;;4954028;28;20425;-69
2021/05/14 03:51:30;;;;;;;3.80;2.20;;;22.10;49.20;;;;;;4978026;28;20410;-69
2021/05/14 03:53:56;;;;;;;2.67;2.00;;;22.10;49.20;;;;;;4977093;28;20415;-68
2021/05/14 03:56:23;;;;;;;5.93;1.95;;;22.10;49.30;;;;;;4966339;28;20428;-66
2021/05/14 03:58:49;;;;;;;4.13;2.13;;;22.20;49.30;;;;;;4976549;28;20415;-69
2021/05/14 04:01:17;;;;;;;4.18;2.03;;;22.20;49.30;;;;;;4963204;28;21238;-69
2021/05/14 04:03:43;;;;;;;6.93;2.30;;;22.20;49.20;;;;;;4966602;28;20457;-68
2021/05/14 04:06:09;;;;;;;6.47;1.80;;;22.20;49.20;;;;;;4976718;28;20450;-67
2021/05/14 04:08:35;;;;;;;4.28;2.10;;;22.10;49.20;;;;;;4967687;28;20916;-70
2021/05/14 04:11:17;;;;;;;4.13;2.17;;;22.10;49.30;;;;;;4974980;28;20755;-69
2021/05/14 04:16:28;;;;;;;4.50;2.05;;;22.10;49.40;;;;;;4956745;28;20956;-67
2021/05/14 04:18:54;;;;;;;7.80;2.58;;;22.10;49.30;;;;;;4974584;28;20426;-67
2021/05/14 04:21:20;;;;;;;4.47;2.10;;;22.10;49.20;;;;;;4948536;28;20425;-67
2021/05/14 04:23:47;;;;;;;5.57;2.00;;;22.10;49.20;;;;;;4965949;28;21573;-69
2021/05/14 04:26:13;;;;;;;5.43;2.15;;;22.10;49.10;;;;;;4965923;28;20485;-69
2021/05/14 04:28:39;;;;;;;4.57;1.70;;;22.10;49.10;;;;;;4978098;28;20449;-68
2021/05/14 04:31:06;;;;;;;3.30;1.90;;;22.10;49.10;;;;;;4978516;28;20425;-67
2021/05/14 04:33:32;;;;;;;5.78;2.42;;;22.10;49.10;;;;;;4975653;28;22618;-68
2021/05/14 04:35:59;;;;;;;5.55;2.30;;;22.10;49.10;;;;;;4964272;28;20516;-67
2021/05/14 04:38:25;;;;;;;7.38;2.30;;;22.10;49.00;;;;;;4945269;28;20433;-68
2021/05/14 04:40:51;;;;;;;6.00;2.50;;;22.10;49.10;;;;;;4961190;28;20526;-68
2021/05/14 04:43:17;;;;;;;8.52;2.40;;;22.10;49.10;;;;;;4979359;28;20418;-68
2021/05/14 04:45:43;;;;;;;8.23;2.70;;;22.10;49.10;;;;;;4966609;28;20567;-68
2021/05/14 04:48:11;;;;;;;6.90;2.10;;;22.20;49.10;;;;;;4965785;28;20430;-68
2021/05/14 04:50:37;;;;;;;3.60;2.10;;;22.20;48.90;;;;;;4966916;28;20425;-67
2021/05/14 04:53:05;;;;;;;3.80;2.00;;;22.20;48.90;;;;;;4968022;28;20575;-68
2021/05/14 04:55:31;;;;;;;10.02;2.50;;;22.20;48.90;;;;;;4963276;28;20422;-71
2021/05/14 04:57:57;;;;;;;4.90;2.00;;;22.20;48.80;;;;;;4972816;28;20418;-70
2021/05/14 05:00:24;;;;;;;6.35;2.20;;;22.20;48.90;;;;;;4979801;28;20421;-71
2021/05/14 05:02:50;;;;;;;6.88;2.20;;;22.20;48.80;;;;;;4945996;28;20480;-71
2021/05/14 05:05:17;;;;;;;3.67;1.90;;;22.20;48.80;;;;;;4977296;28;20426;-68
2021/05/14 05:07:44;;;;;;;6.43;2.10;;;22.20;48.90;;;;;;4941516;28;20770;-68
2021/05/14 05:10:10;;;;;;;5.75;2.05;;;22.20;48.80;;;;;;4966841;28;20422;-69
2021/05/14 05:12:37;;;;;;;2.75;1.60;;;22.30;48.80;;;;;;4961613;28;20444;-68
2021/05/14 05:15:03;;;;;;;5.90;2.20;;;22.30;48.90;;;;;;4978088;28;20814;-70
2021/05/14 05:17:30;;;;;;;4.63;2.45;;;22.30;48.80;;;;;;4978166;28;20757;-69
2021/05/14 05:19:56;;;;;;;4.10;2.05;;;22.30;48.60;;;;;;4978170;28;20426;-68
2021/05/14 05:22:23;;;;;;;5.65;2.20;;;22.30;48.70;;;;;;4969441;28;20941;-67
2021/05/14 05:24:49;;;;;;;7.00;2.85;;;22.20;48.50;;;;;;4956242;28;20421;-67
2021/05/14 05:27:15;;;;;;;7.70;2.83;;;22.20;48.60;;;;;;4962796;28;20971;-68
2021/05/14 05:29:41;;;;;;;6.10;2.22;;;22.20;48.70;;;;;;4979114;28;20428;-68
2021/05/14 05:32:07;;;;;;;5.63;2.17;;;22.20;48.70;;;;;;4956566;28;21371;-68
2021/05/14 05:34:34;;;;;;;4.38;1.80;;;22.20;48.80;;;;;;4974245;28;20566;-67
2021/05/14 05:37:00;;;;;;;3.35;2.10;;;22.20;48.80;;;;;;4959149;28;20422;-68
2021/05/14 05:39:27;;;;;;;5.53;2.25;;;22.10;48.70;;;;;;4973284;28;20419;-69
2021/05/14 05:41:53;;;;;;;6.68;2.22;;;22.10;48.90;;;;;;4947060;28;20424;-70
2021/05/14 05:44:19;;;;;;;5.00;2.20;;;22.10;49.00;;;;;;4959150;28;20425;-69
2021/05/14 05:46:45;;;;;;;6.00;2.28;;;22.10;48.90;;;;;;4941931;28;20442;-68
2021/05/14 05:49:11;;;;;;;5.60;2.03;;;22.10;48.70;;;;;;4959100;28;20484;-69
2021/05/14 05:51:37;;;;;;;6.63;2.22;;;22.20;48.80;;;;;;4956223;28;20862;-68
2021/05/14 05:54:05;;;;;;;5.55;2.05;;;22.20;48.60;;;;;;4952841;28;20524;-68
2021/05/14 05:56:32;;;;;;;7.03;2.00;;;22.20;48.80;;;;;;4953152;28;20441;-70
2021/05/14 05:58:58;;;;;;;5.07;1.90;;;22.20;48.60;;;;;;4939652;28;20419;-68
2021/05/14 06:01:24;;;;;;;5.18;1.80;;;22.20;49.50;;;;;;4952515;28;20436;-68
2021/05/14 06:03:51;;;;;;;5.03;1.87;;;22.10;48.70;;;;;;4949362;28;20419;-68
2021/05/14 06:06:17;;;;;;;5.43;2.17;;;22.10;48.80;;;;;;4959507;28;20425;-68
2021/05/14 06:08:43;;;;;;;4.80;1.77;;;22.10;48.80;;;;;;4960892;28;20418;-67
2021/05/14 06:11:09;;;;;;;3.83;2.20;;;22.10;48.70;;;;;;4944895;28;20445;-70
2021/05/14 06:13:36;;;;;;;4.50;1.90;;;22.10;48.70;;;;;;4958245;28;21164;-68
2021/05/14 06:16:03;;;;;;;4.28;2.00;;;22.10;48.80;;;;;;4964239;28;21047;-67
2021/05/14 06:18:34;;;;;;;4.00;2.10;;;22.10;48.90;;;;;;4975570;28;20940;-70
2021/05/14 06:21:00;;;;;;;5.77;2.00;;;22.10;48.90;;;;;;4962247;28;20418;-68
2021/05/14 06:23:26;;;;;;;4.45;1.75;;;22.00;49.10;;;;;;4973252;28;20414;-67
2021/05/14 06:25:53;;;;;;;5.40;1.90;;;22.00;49.10;;;;;;4963507;28;21586;-68
2021/05/14 06:28:20;;;;;;;5.55;2.20;;;22.00;48.90;;;;;;4967945;28;21929;-69
2021/05/14 06:30:47;;;;;;;5.78;2.00;;;22.10;48.80;;;;;;4948570;28;20402;-67
2021/05/14 06:33:14;;;;;;;7.18;1.90;;;22.10;48.80;;;;;;4959293;28;20430;-70
2021/05/14 06:35:41;;;;;;;8.60;2.40;;;22.10;48.70;;;;;;4928592;28;20440;-67
2021/05/14 06:38:07;;;;;;;8.07;1.80;;;22.10;48.60;;;;;;4949709;28;20441;-68
2021/05/14 06:40:33;;;;;;;2.90;2.53;;;22.10;48.70;;;;;;4973997;28;20445;-69
2021/05/14 06:42:59;;;;;;;6.57;2.17;;;22.00;48.70;;;;;;4958403;28;20885;-69
2021/05/14 06:45:26;;;;;;;4.85;2.17;;;22.00;48.90;;;;;;4939420;28;20485;-68
2021/05/14 06:47:53;;;;;;;5.80;2.30;;;22.00;48.90;;;;;;4955681;28;20476;-69
2021/05/14 06:50:19;;;;;;;3.80;1.90;;;22.00;48.80;;;;;;4945297;28;20423;-71
2021/05/14 06:52:45;;;;;;;3.53;2.13;;;22.00;48.90;;;;;;4965525;28;20489;-70
2021/05/14 06:55:12;;;;;;;6.90;2.00;;;22.00;48.80;;;;;;4969633;28;20421;-70
2021/05/14 06:57:38;;;;;;;5.68;2.03;;;22.10;48.90;;;;;;4942446;28;20430;-67
2021/05/14 07:00:05;;;;;;;4.10;1.70;;;22.00;48.80;;;;;;4945737;28;20422;-70
2021/05/14 07:02:32;;;;;;;5.63;2.20;;;22.00;48.80;;;;;;4935039;28;20901;-70
2021/05/14 07:04:59;;;;;;;5.30;2.80;;;22.00;48.90;;;;;;4975112;28;20930;-70
2021/05/14 07:07:25;;;;;;;5.68;1.90;;;22.00;49.00;;;;;;4950437;28;20459;-69
2021/05/14 07:09:51;;;;;;;6.95;2.28;;;21.90;49.10;;;;;;4959941;28;20520;-69
2021/05/14 07:12:18;;;;;;;3.25;1.80;;;21.90;49.20;;;;;;4969186;28;20414;-66
2021/05/14 07:14:44;;;;;;;6.40;1.98;;;21.90;49.30;;;;;;4980033;28;20426;-68
2021/05/14 07:17:10;;;;;;;5.38;1.98;;;21.90;49.20;;;;;;4969000;28;20433;-68
2021/05/14 07:19:36;;;;;;;5.95;2.28;;;21.90;49.20;;;;;;4972864;28;21887;-68
2021/05/14 07:22:04;;;;;;;8.90;2.10;;;21.90;49.10;;;;;;4980240;28;21068;-68
2021/05/14 07:24:32;;;;;;;4.78;2.08;;;21.90;49.10;;;;;;4977250;28;20777;-69
2021/05/14 07:26:58;;;;;;;4.10;2.00;;;21.90;49.10;;;;;;4974697;28;20493;-68
2021/05/14 07:29:24;;;;;;;5.90;2.38;;;21.90;49.20;;;;;;4980694;28;20420;-69
2021/05/14 07:31:50;;;;;;;3.88;1.92;;;21.90;49.30;;;;;;4963728;28;20430;-69
2021/05/14 07:34:16;;;;;;;5.22;2.10;;;21.80;49.40;;;;;;4980183;28;20411;-68
2021/05/14 07:36:43;;;;;;;6.05;1.98;;;21.80;49.30;;;;;;4954537;28;20585;-68
2021/05/14 07:39:09;;;;;;;5.07;1.73;;;21.90;49.30;;;;;;4959649;28;20428;-69
2021/05/14 07:41:36;;;;;;;5.40;2.20;;;21.90;49.50;;;;;;4957603;28;20430;-71
2021/05/14 07:44:02;;;;;;;7.00;2.00;;;21.90;49.60;;;;;;4954790;28;20450;-70
2021/05/14 07:46:28;;;;;;;2.78;2.17;;;21.90;49.40;;;;;;4975558;28;20426;-68
2021/05/14 07:48:54;;;;;;;7.35;2.50;;;21.90;49.30;;;;;;4964605;28;20430;-69
2021/05/14 07:51:20;;;;;;;4.70;1.90;;;21.90;49.30;;;;;;4975225;28;20530;-67
2021/05/14 07:53:46;;;;;;;4.90;1.90;;;21.80;49.30;;;;;;4929615;28;20984;-68
2021/05/14 07:56:13;;;;;;;5.90;2.33;;;21.80;49.40;;;;;;4970390;28;20918;-68
2021/05/14 07:58:39;;;;;;;5.63;2.03;;;21.80;49.40;;;;;;4961626;28;20418;-69
2021/05/14 08:01:06;;;;;;;5.80;1.88;;;21.80;49.30;;;;;;4975570;28;20438;-69
2021/05/14 08:03:32;;;;;;;9.40;2.40;;;21.80;49.40;;;;;;4961898;28;20414;-69
2021/05/14 08:05:58;;;;;;;8.33;2.40;;;21.80;49.30;;;;;;4964367;28;21439;-69
2021/05/14 08:08:25;;;;;;;3.28;1.90;;;21.90;49.20;;;;;;4974474;28;20937;-68
2021/05/14 08:10:54;;;;;;;7.90;2.45;;;21.90;49.10;;;;;;4965107;28;20481;-67
2021/05/14 08:13:21;;;;;;;6.25;2.30;;;21.90;49.00;;;;;;4955502;28;20429;-68
2021/05/14 08:15:47;;;;;;;7.65;2.38;;;21.90;48.80;;;;;;4947139;28;20511;-68
2021/05/14 08:18:13;;;;;;;6.72;2.25;;;21.90;49.00;;;;;;4945705;28;20426;-67
2021/05/14 08:20:41;;;;;;;5.72;2.10;;;21.90;49.00;;;;;;4975510;28;20423;-69
2021/05/14 08:23:08;;;;;;;6.63;2.17;;;21.90;49.00;;;;;;4973789;28;20419;-69
2021/05/14 08:25:35;;;;;;;3.67;2.40;;;21.90;49.00;;;;;;4974269;28;20434;-67
2021/05/14 08:28:01;;;;;;;6.50;2.78;;;21.90;48.80;;;;;;4975141;28;20945;-68
2021/05/14 08:30:28;;;;;;;4.72;1.83;;;22.00;48.80;;;;;;4975180;28;20422;-69
2021/05/14 08:32:54;;;;;;;6.90;2.78;;;22.00;48.80;;;;;;4974773;28;20961;-69
2021/05/14 08:35:21;;;;;;;7.55;2.15;;;22.00;48.60;;;;;;4971671;28;20979;-68
2021/05/14 08:37:48;;;;;;;5.10;2.40;;;22.00;48.60;;;;;;4953473;28;20479;-68
2021/05/14 08:40:14;;;;;;;3.75;2.15;;;22.00;48.70;;;;;;4974816;28;20448;-71
2021/05/14 08:42:42;;;;;;;5.53;2.27;;;22.00;48.70;;;;;;4968702;28;20422;-70
2021/05/14 08:45:09;;;;;;;6.60;2.58;;;22.00;48.80;;;;;;4949303;28;20952;-72
2021/05/14 08:47:37;;;;;;;3.47;2.38;;;21.90;48.90;;;;;;4946520;28;20426;-70
2021/05/14 08:50:04;;;;;;;3.60;2.00;;;21.90;49.80;;;;;;4963570;28;20430;-69
2021/05/14 08:52:30;;;;;;;4.35;2.03;;;21.90;49.20;;;;;;4972471;28;20845;-69
2021/05/14 08:54:58;;;;;;;5.35;2.40;;;21.90;49.20;;;;;;4956949;28;21724;-68
2021/05/14 08:57:24;;;;;;;7.45;2.05;;;21.90;50.00;;;;;;4953159;28;20878;-69
2021/05/14 08:59:51;;;;;;;6.00;2.50;;;21.80;49.20;;;;;;4972514;28;21225;-68
2021/05/14 09:02:17;;;;;;;4.03;2.20;;;21.80;49.20;;;;;;4965356;28;20427;-67
2021/05/14 09:04:44;;;;;;;4.93;2.30;;;21.90;49.20;;;;;;4943212;28;20920;-69
2021/05/14 09:07:14;;;;;;;5.80;2.10;;;21.90;49.00;;;;;;4954568;28;20517;-70
2021/05/14 09:09:40;;;;;;;5.63;2.30;;;21.90;48.90;;;;;;4971466;28;20426;-68
2021/05/14 09:12:08;;;;;;;3.22;1.90;;;21.90;48.80;;;;;;4942803;28;20434;-67
2021/05/14 09:14:35;;;;;;;5.80;2.10;;;21.90;48.80;;;;;;4938325;28;20477;-70
2021/05/14 09:17:11;;;;;;;4.22;1.90;;;21.90;48.80;;;;;;4974862;28;20535;-70
2021/05/14 09:19:39;;;;;;;7.63;2.80;;;21.90;48.80;;;;;;5057684;23;20430;-67
2021/05/14 09:22:10;;;;;;;4.25;2.13;;;21.90;48.90;;;;;;4937954;28;20439;-68
2021/05/14 09:24:36;;;;;;;9.27;2.35;;;21.90;49.10;;;;;;4933393;28;20414;-67
2021/05/14 09:27:15;;;;;;;6.05;2.33;;;21.80;49.20;;;;;;4948555;28;20434;-71
2021/05/14 09:29:41;;;;;;;6.45;2.50;;;21.80;49.20;;;;;;4944442;28;20417;-72
2021/05/14 09:32:21;;;;;;;4.40;2.28;;;21.80;49.20;;;;;;4938357;28;20431;-69
2021/05/14 09:34:49;;;;;;;7.55;2.55;;;21.80;49.20;;;;;;4933584;28;20535;-70
2021/05/14 09:37:16;;;;;;;3.75;2.47;;;21.80;49.30;;;;;;4951015;28;20978;-69
2021/05/14 09:39:42;;;;;;;5.82;2.20;;;21.80;49.30;;;;;;4947542;28;20517;-68
2021/05/14 09:42:09;;;;;;;5.93;2.80;;;21.80;50.00;;;;;;4941653;28;20441;-70
2021/05/14 09:44:35;;;;;;;3.08;2.28;;;21.80;51.50;;;;;;4925915;28;21377;-69
2021/05/14 09:47:01;;;;;;;5.72;2.50;;;21.90;52.00;;;;;;4941451;28;20834;-68
2021/05/14 09:49:28;;;;;;;7.90;2.60;;;22.00;51.50;;;;;;4935698;28;20432;-67
2021/05/14 09:51:55;;;;;;;5.47;2.28;;;22.00;51.10;;;;;;4931952;28;20462;-66
2021/05/14 09:54:27;;;;;;;5.30;2.22;;;22.10;51.00;;;;;;4931020;28;21557;-67
2021/05/14 09:57:20;;;;;;;6.65;2.63;;;22.20;51.00;;;;;;4930911;28;20728;-67
2021/05/14 09:59:47;;;;;;;4.33;2.30;;;22.20;50.60;;;;;;4921621;28;20457;-68
2021/05/14 10:02:22;;;;;;;3.50;2.20;;;22.40;50.40;;;;;;4931083;28;20410;-69
2021/05/14 10:04:48;;;;;;;5.45;2.30;;;22.40;50.40;;;;;;4923688;28;20538;-67
2021/05/14 10:07:15;;;;;;;6.80;2.50;;;22.50;49.80;;;;;;4933692;28;20473;-68
2021/05/14 10:09:42;;;;;;;4.65;2.30;;;22.60;49.50;;;;;;4921073;28;20500;-70
2021/05/14 10:12:09;;;;;;;4.03;1.98;;;22.70;49.60;;;;;;4945234;28;20435;-68
2021/05/14 10:14:35;;;;;;;6.32;2.30;;;22.70;48.90;;;;;;4927142;28;20836;-68
2021/05/14 10:17:01;;;;;;;5.35;2.20;;;22.80;49.00;;;;;;4929233;28;20471;-68
2021/05/14 10:19:28;;;;;;;6.15;2.58;;;22.80;49.00;;;;;;4932363;28;20422;-69
2021/05/14 10:21:54;;;;;;;14.00;2.60;;;22.90;49.10;;;;;;4953807;28;20418;-68
2021/05/14 10:24:39;;;;;;;6.57;2.70;;;23.00;50.00;;;;;;4953218;28;20426;-70
2021/05/14 10:27:19;;;;;;;7.35;2.60;;;23.10;49.00;;;;;;4947328;28;20506;-68
2021/05/14 10:29:46;;;;;;;4.05;2.40;;;23.10;49.20;;;;;;4931627;28;20409;-68
2021/05/14 10:32:12;;;;;;;4.43;2.13;;;23.20;48.40;;;;;;4934437;28;20423;-69
2021/05/14 10:34:38;;;;;;;4.60;2.50;;;23.20;48.50;;;;;;4952751;28;20426;-68
2021/05/14 10:37:05;;;;;;;4.80;2.20;;;23.20;48.20;;;;;;4932063;28;21122;-72
2021/05/14 10:39:35;;;;;;;5.57;2.10;;;23.20;48.00;;;;;;4938146;28;20778;-69
2021/05/14 10:42:07;;;;;;;5.20;2.15;;;23.20;47.80;;;;;;4965312;28;20470;-68
2021/05/14 10:44:53;;;;;;;5.63;2.55;;;23.20;47.70;;;;;;4929415;28;20414;-68
2021/05/14 10:47:47;;;;;;;6.85;2.33;;;23.20;47.60;;;;;;4923381;28;20445;-70
2021/05/14 10:50:37;;;;;;;5.13;2.20;;;23.20;47.60;;;;;;4924307;28;20421;-69
2021/05/14 10:53:33;;;;;;;4.13;2.20;;;23.10;47.50;;;;;;4920188;28;20771;-69
2021/05/14 10:56:35;;;;;;;5.35;2.20;;;23.20;47.50;;;;;;4945162;28;20467;-69
2021/05/14 10:59:08;;;;;;;3.55;2.03;;;23.30;47.40;;;;;;4919940;28;20537;-68
2021/05/14 11:01:37;;;;;;;4.15;2.33;;;23.30;47.10;;;;;;4950224;28;20449;-68
2021/05/14 11:04:04;;;;;;;6.60;2.53;;;23.40;47.10;;;;;;4931449;28;20426;-68
2021/05/14 11:06:42;;;;;;;4.43;2.30;;;23.40;46.90;;;;;;4935196;28;20438;-69
2021/05/14 11:09:09;;;;;;;6.22;2.10;;;23.40;46.90;;;;;;4947520;28;20407;-68
2021/05/14 11:11:35;;;;;;;4.85;2.35;;;23.40;46.80;;;;;;4950427;28;20434;-68
2021/05/14 11:14:15;;;;;;;4.10;2.10;;;23.40;46.80;;;;;;4939935;28;20493;-69
2021/05/14 11:16:42;;;;;;;5.28;2.20;;;23.40;46.90;;;;;;4956370;28;21002;-69
2021/05/14 11:19:21;;;;;;;3.50;2.20;;;23.40;46.90;;;;;;4934036;28;20415;-72
2021/05/14 11:22:11;;;;;;;6.40;2.40;;;23.40;48.80;;;;;;4934435;28;21030;-69
2021/05/14 11:24:45;;;;;;;7.70;2.40;;;23.40;48.60;;;;;;4935200;28;20426;-70
2021/05/14 11:27:12;;;;;;;4.53;2.33;;;23.50;48.70;;;;;;4946567;28;20450;-69
2021/05/14 11:29:42;;;;;;;6.10;2.63;;;23.50;49.90;;;;;;4937388;28;20430;-71
2021/05/14 11:32:33;;;;;;;5.60;2.47;;;23.50;48.90;;;;;;4948206;28;21067;-68
2021/05/14 11:35:07;;;;;;;6.70;3.17;;;23.50;48.70;;;;;;4936594;28;20463;-71
2021/05/14 11:37:34;;;;;;;6.43;2.97;;;23.50;48.50;;;;;;4930054;28;20430;-70
2021/05/14 11:40:08;;;;;;;5.93;2.50;;;23.50;48.30;;;;;;4953713;28;20420;-68
2021/05/14 11:42:38;;;;;;;8.65;2.97;;;23.50;48.40;;;;;;4939489;28;20462;-70
2021/05/14 11:45:06;;;;;;;4.70;2.50;;;23.60;48.50;;;;;;4930395;28;20419;-73
2021/05/14 11:47:33;;;;;;;5.60;3.20;;;23.60;48.80;;;;;;4935466;28;20430;-71
2021/05/14 11:49:59;;;;;;;7.63;3.15;;;23.60;49.80;;;;;;4920826;28;20549;-71
2021/05/14 11:52:36;;;;;;;6.40;2.63;;;23.70;49.80;;;;;;4953805;28;20530;-69
2021/05/14 11:55:04;;;;;;;5.88;2.50;;;23.70;49.70;;;;;;4916868;28;20424;-73
2021/05/14 11:57:30;;;;;;;5.32;2.70;;;23.70;49.20;;;;;;4938052;28;20782;-71
2021/05/14 11:59:57;;;;;;;2.35;1.92;;;23.70;49.00;;;;;;4932525;28;20436;-72
2021/05/14 12:02:41;;;;;;;5.57;2.40;;;23.70;48.80;;;;;;4938586;28;20422;-72
2021/05/14 12:05:09;;;;;;;5.50;2.30;;;23.70;49.00;;;;;;4916759;28;20431;-70
2021/05/14 12:07:35;;;;;;;3.88;2.50;;;23.70;48.60;;;;;;4941641;28;20421;-69
2021/05/14 12:10:02;;;;;;;6.47;2.40;;;23.70;48.60;;;;;;4945696;28;20539;-69
2021/05/14 12:12:29;;;;;;;4.80;2.30;;;23.70;48.50;;;;;;4941705;28;20502;-68
2021/05/14 12:15:12;;;;;;;7.60;2.70;;;23.60;48.40;;;;;;4941030;28;20436;-70
2021/05/14 12:17:39;;;;;;;6.13;3.23;;;23.60;48.50;;;;;;4928943;28;20405;-69
2021/05/14 12:20:25;;;;;;;2.50;2.03;;;23.60;48.30;;;;;;4933014;28;20469;-69
2021/05/14 12:22:53;;;;;;;2.60;2.10;;;23.60;48.10;;;;;;4940090;28;20412;-69
2021/05/14 12:25:20;;;;;;;7.50;2.43;;;23.50;47.90;;;;;;4946063;28;20426;-73
2021/05/14 12:27:46;;;;;;;4.25;2.40;;;23.50;47.80;;;;;;4932550;28;20437;-70
2021/05/14 12:30:15;;;;;;;4.20;2.30;;;23.50;47.70;;;;;;4934989;28;20440;-68
2021/05/14 12:32:48;;;;;;;5.15;2.85;;;23.50;47.70;;;;;;4920199;28;20438;-69
2021/05/14 12:35:18;;;;;;;5.90;1.90;;;23.50;48.00;;;;;;4933896;28;20492;-72
2021/05/14 12:37:57;;;;;;;5.80;2.78;;;23.50;48.10;;;;;;4949358;28;20941;-69
2021/05/14 12:40:37;;;;;;;4.00;2.30;;;23.60;48.10;;;;;;4939708;28;20423;-69
2021/05/14 12:43:07;;;;;;;4.28;1.92;;;23.60;48.10;;;;;;4935681;28;20513;-68
2021/05/14 12:45:35;;;;;;;7.18;2.72;;;23.60;48.10;;;;;;4929362;28;20418;-70
2021/05/14 12:48:03;;;;;;;5.03;2.20;;;23.60;48.10;;;;;;4927275;28;20420;-69
2021/05/14 12:50:29;;;;;;;3.97;2.00;;;23.60;48.10;;;;;;4943365;28;20425;-69
2021/05/14 12:52:55;;;;;;;4.85;2.08;;;23.60;48.10;;;;;;4934464;28;20425;-70
2021/05/14 12:55:22;;;;;;;2.80;2.13;;;23.70;48.20;;;;;;4920996;28;20965;-68